createdAt,value
2023-01-05T00:01:31.434Z,0.60
2023-01-05T00:03:59.622Z,0.60
2023-01-05T00:06:27.780Z,0.63
2023-01-05T00:08:57.143Z,0.60
2023-01-05T00:11:55.267Z,0.60
2023-01-05T00:14:42.288Z,0.60
2023-01-05T00:17:29.714Z,0.60
2023-01-05T00:20:15.347Z,0.60
2023-01-05T00:22:46.335Z,0.50
2023-01-05T00:25:17.635Z,0.80
2023-01-05T00:27:48.079Z,0.70
2023-01-05T00:30:18.054Z,0.60
2023-01-05T00:32:46.999Z,0.70
2023-01-05T00:35:16.177Z,0.60
2023-01-05T00:37:45.523Z,0.70
2023-01-05T00:40:17.319Z,0.60
2023-01-05T00:42:46.172Z,0.80
2023-01-05T00:45:15.919Z,0.60
2023-01-05T00:47:45.222Z,0.50
2023-01-05T00:50:15.227Z,0.63
2023-01-05T00:52:43.658Z,0.70
2023-01-05T00:55:15.268Z,0.50
2023-01-05T00:57:43.673Z,0.57
2023-01-05T01:00:15.023Z,0.60
2023-01-05T01:02:43.171Z,0.60
2023-01-05T01:05:12.257Z,0.60
2023-01-05T01:07:40.295Z,0.60
2023-01-05T01:10:09.437Z,0.50
2023-01-05T01:12:38.958Z,0.60
2023-01-05T01:15:08.942Z,0.60
2023-01-05T01:17:37.134Z,0.60
2023-01-05T01:20:06.481Z,0.60
2023-01-05T01:22:34.611Z,0.60
2023-01-05T01:25:02.662Z,0.63
2023-01-05T01:27:31.192Z,0.53
2023-01-05T01:30:00.599Z,0.57
2023-01-05T01:32:28.766Z,0.60
2023-01-05T01:34:56.841Z,0.60
2023-01-05T01:37:24.961Z,0.60
2023-01-05T01:39:55.740Z,0.67
2023-01-05T01:42:24.034Z,0.63
2023-01-05T01:45:00.499Z,0.60
2023-01-05T01:47:39.880Z,0.70
2023-01-05T01:50:14.396Z,0.60
2023-01-05T01:52:43.065Z,0.60
2023-01-05T01:55:11.757Z,0.60
2023-01-05T01:57:40.084Z,0.60
2023-01-05T02:00:14.729Z,0.60
2023-01-05T02:02:46.765Z,0.57
2023-01-05T02:05:18.634Z,0.90
2023-01-05T02:07:48.455Z,0.60
2023-01-05T02:10:18.086Z,0.60
2023-01-05T02:12:59.560Z,0.60
2023-01-05T02:15:37.374Z,0.70
2023-01-05T02:18:21.228Z,0.50
2023-01-05T02:21:16.903Z,0.60
2023-01-05T02:24:36.113Z,0.60
2023-01-05T02:27:28.347Z,0.70
2023-01-05T02:30:20.028Z,0.67
2023-01-05T02:32:56.354Z,0.60
2023-01-05T02:35:30.808Z,0.80
2023-01-05T02:38:04.460Z,0.70
2023-01-05T02:40:36.698Z,0.60
2023-01-05T02:43:06.764Z,0.60
2023-01-05T02:45:35.396Z,0.60
2023-01-05T02:48:05.818Z,0.60
2023-01-05T02:50:37.867Z,0.60
2023-01-05T02:53:15.440Z,0.83
2023-01-05T02:55:47.813Z,0.70
2023-01-05T02:58:19.079Z,0.70
2023-01-05T03:00:49.539Z,0.70
2023-01-05T03:03:23.563Z,0.60
2023-01-05T03:05:56.595Z,0.60
2023-01-05T03:08:32.416Z,0.67
2023-01-05T03:11:23.004Z,0.50
2023-01-05T03:13:54.146Z,0.60
2023-01-05T03:16:25.926Z,0.60
2023-01-05T03:19:12.210Z,0.60
2023-01-05T03:21:58.015Z,0.50
2023-01-05T03:24:44.181Z,0.70
2023-01-05T03:27:33.062Z,0.70
2023-01-05T03:30:19.871Z,0.60
2023-01-05T03:33:09.457Z,0.63
2023-01-05T03:35:42.555Z,0.60
2023-01-05T03:38:18.363Z,0.80
2023-01-05T03:40:52.177Z,0.60
2023-01-05T03:43:21.372Z,0.60
2023-01-05T03:45:54.126Z,0.67
2023-01-05T03:48:27.286Z,0.60
2023-01-05T03:50:57.063Z,0.67
2023-01-05T03:53:26.987Z,0.60
2023-01-05T03:55:55.416Z,0.57
2023-01-05T03:58:25.759Z,0.60
2023-01-05T04:00:54.099Z,0.60
2023-01-05T04:03:31.080Z,0.70
2023-01-05T04:06:02.548Z,0.83
2023-01-05T04:08:32.660Z,0.60
2023-01-05T04:11:12.553Z,0.60
2023-01-05T04:13:40.846Z,0.60
2023-01-05T04:16:09.473Z,0.60
2023-01-05T04:18:39.777Z,0.70
2023-01-05T04:21:11.890Z,0.60
2023-01-05T04:23:40.969Z,0.50
2023-01-05T04:26:10.203Z,0.60
2023-01-05T04:28:39.183Z,0.60
2023-01-05T04:31:07.514Z,0.60
2023-01-05T04:33:36.475Z,0.60
2023-01-05T04:36:05.651Z,0.60
2023-01-05T04:38:35.175Z,0.60
2023-01-05T04:41:03.511Z,0.50
2023-01-05T04:43:31.602Z,0.60
2023-01-05T04:46:02.222Z,0.60
2023-01-05T04:52:28.121Z,0.60
2023-01-05T04:54:58.011Z,0.50
2023-01-05T04:57:27.978Z,0.60
2023-01-05T04:59:56.663Z,0.60
2023-01-05T05:02:26.405Z,0.60
2023-01-05T05:04:55.409Z,0.57
2023-01-05T05:07:23.879Z,0.60
2023-01-05T05:09:52.254Z,0.70
2023-01-05T05:12:22.048Z,0.60
2023-01-05T05:14:53.037Z,0.67
2023-01-05T05:17:21.300Z,0.60
2023-01-05T05:19:51.094Z,0.60
2023-01-05T05:22:22.020Z,0.50
2023-01-05T05:24:50.539Z,0.60
2023-01-05T05:27:18.865Z,0.77
2023-01-05T05:29:48.397Z,0.60
2023-01-05T05:32:17.025Z,0.60
2023-01-05T05:34:45.149Z,0.60
2023-01-05T05:37:13.555Z,0.60
2023-01-05T05:39:41.728Z,0.50
2023-01-05T05:42:09.920Z,0.60
2023-01-05T05:44:38.043Z,0.60
2023-01-05T05:47:07.577Z,0.60
2023-01-05T05:49:35.865Z,0.60
2023-01-05T05:52:04.254Z,0.50
2023-01-05T05:54:32.376Z,0.60
2023-01-05T05:57:00.508Z,0.60
2023-01-05T05:59:28.685Z,0.70
2023-01-05T06:01:56.909Z,0.50
2023-01-05T06:04:26.413Z,0.50
2023-01-05T06:06:54.495Z,0.60
2023-01-05T06:09:22.584Z,0.50
2023-01-05T06:11:50.629Z,0.60
2023-01-05T06:14:18.945Z,0.60
2023-01-05T06:16:47.216Z,0.57
2023-01-05T06:19:15.351Z,0.60
2023-01-05T06:21:44.795Z,0.57
2023-01-05T06:24:12.958Z,0.50
2023-01-05T06:26:41.082Z,0.60
2023-01-05T06:29:09.196Z,0.50
2023-01-05T06:31:37.304Z,0.50
2023-01-05T06:34:05.571Z,0.60
2023-01-05T06:36:33.800Z,0.50
2023-01-05T06:39:03.661Z,0.60
2023-01-05T06:41:31.790Z,0.60
2023-01-05T06:43:59.947Z,0.60
2023-01-05T06:46:28.044Z,0.60
2023-01-05T06:48:57.141Z,0.50
2023-01-05T06:51:25.303Z,0.60
2023-01-05T06:53:53.360Z,0.50
2023-01-05T06:56:22.796Z,0.60
2023-01-05T06:58:50.885Z,0.60
2023-01-05T07:01:19.678Z,0.60
2023-01-05T07:03:47.925Z,0.50
2023-01-05T07:06:17.006Z,0.60
2023-01-05T07:08:45.151Z,0.60
2023-01-05T07:11:13.933Z,0.60
2023-01-05T07:13:43.668Z,0.60
2023-01-05T07:16:11.790Z,0.60
2023-01-05T07:18:39.891Z,0.60
2023-01-05T07:21:08.071Z,0.50
2023-01-05T07:23:37.953Z,0.70
2023-01-05T07:26:06.572Z,0.50
2023-01-05T07:28:35.124Z,0.50
2023-01-05T07:31:07.424Z,0.60
2023-01-05T07:33:39.988Z,0.60
2023-01-05T07:36:09.528Z,0.67
2023-01-05T07:38:37.642Z,0.60
2023-01-05T07:41:05.992Z,0.60
2023-01-05T07:43:35.677Z,0.50
2023-01-05T07:46:05.964Z,0.60
2023-01-05T07:48:34.556Z,0.60
2023-01-05T07:51:03.416Z,0.60
2023-01-05T07:53:33.789Z,0.63
2023-01-05T07:56:03.983Z,0.60
2023-01-05T07:58:32.163Z,0.50
2023-01-05T08:01:06.241Z,0.60
2023-01-05T08:03:34.427Z,0.60
2023-01-05T08:06:06.016Z,0.60
2023-01-05T08:08:34.124Z,0.60
2023-01-05T08:11:04.907Z,0.60
2023-01-05T08:13:50.688Z,0.60
2023-01-05T08:16:20.659Z,0.50
2023-01-05T08:18:48.724Z,0.90
2023-01-05T08:21:16.819Z,0.63
2023-01-05T08:23:45.835Z,0.50
2023-01-05T08:26:16.123Z,0.60
2023-01-05T08:28:44.754Z,0.50
2023-01-05T08:31:15.332Z,0.50
2023-01-05T08:33:44.920Z,0.70
2023-01-05T08:36:15.179Z,0.70
2023-01-05T08:38:48.235Z,0.60
2023-01-05T08:41:20.864Z,0.60
2023-01-05T08:43:52.956Z,0.60
2023-01-05T08:46:22.276Z,2.27
2023-01-05T08:48:53.058Z,0.60
2023-01-05T08:51:21.409Z,0.50
2023-01-05T08:53:49.775Z,0.60
2023-01-05T08:56:18.233Z,0.60
2023-01-05T08:58:46.592Z,0.60
2023-01-05T09:01:16.588Z,0.57
2023-01-05T09:03:44.816Z,0.50
2023-01-05T09:06:15.182Z,0.60
2023-01-05T09:08:44.716Z,0.60
2023-01-05T09:11:14.611Z,0.70
2023-01-05T09:13:43.505Z,0.80
2023-01-05T09:16:13.036Z,0.60
2023-01-05T09:18:42.458Z,0.80
2023-01-05T09:21:10.893Z,0.60
2023-01-05T09:23:40.590Z,0.70
2023-01-05T09:26:11.529Z,0.50
2023-01-05T09:28:40.180Z,0.60
2023-01-05T09:31:10.175Z,0.63
2023-01-05T09:33:38.695Z,0.60
2023-01-05T09:36:07.894Z,0.60
2023-01-05T09:38:38.084Z,0.60
2023-01-05T09:41:17.631Z,0.63
2023-01-05T09:43:47.846Z,0.70
2023-01-05T09:46:19.280Z,0.70
2023-01-05T09:48:54.796Z,0.60
2023-01-05T09:51:23.300Z,0.60
2023-01-05T09:53:51.463Z,0.60
2023-01-05T09:57:07.350Z,0.70
2023-01-05T09:59:19.220Z,0.70
2023-01-05T10:01:49.149Z,0.70
2023-01-05T10:04:22.825Z,0.93
2023-01-05T10:06:58.831Z,0.93
2023-01-05T10:09:31.270Z,0.70
2023-01-05T10:12:21.624Z,0.67
2023-01-05T10:14:52.996Z,0.80
2023-01-05T10:20:18.989Z,0.70
2023-01-05T10:22:55.393Z,0.60
2023-01-05T10:25:28.943Z,0.60
2023-01-05T10:28:04.345Z,0.60
2023-01-05T10:30:44.231Z,0.70
2023-01-05T10:33:40.232Z,0.60
2023-01-05T10:36:28.098Z,0.60
2023-01-05T10:39:13.590Z,0.60
2023-01-05T10:41:51.835Z,0.67
2023-01-05T10:44:41.544Z,0.70
2023-01-05T10:47:10.262Z,0.63
2023-01-05T10:49:39.331Z,0.77
2023-01-05T10:52:10.213Z,0.60
2023-01-05T10:54:41.237Z,0.70
2023-01-05T10:57:36.552Z,0.90
2023-01-05T11:00:10.683Z,0.70
2023-01-05T11:02:40.149Z,0.70
2023-01-05T11:05:23.936Z,0.60
2023-01-05T11:07:53.218Z,0.60
2023-01-05T11:10:27.489Z,0.60
2023-01-05T11:13:01.527Z,0.80
2023-01-05T11:15:32.390Z,0.70
2023-01-05T11:18:00.779Z,0.60
2023-01-05T11:20:30.127Z,0.67
2023-01-05T11:22:58.346Z,0.80
2023-01-05T11:25:31.054Z,0.67
2023-01-05T11:28:12.838Z,0.80
2023-01-05T11:30:48.957Z,0.60
2023-01-05T11:33:25.846Z,0.50
2023-01-05T11:35:54.324Z,0.60
2023-01-05T11:38:25.453Z,0.60
2023-01-05T11:40:56.336Z,0.70
2023-01-05T11:43:26.011Z,0.60
2023-01-05T11:45:57.684Z,0.50
2023-01-05T11:48:28.811Z,0.60
2023-01-05T11:50:58.278Z,0.70
2023-01-05T11:53:35.496Z,0.70
2023-01-05T11:56:06.220Z,0.70
2023-01-05T11:58:35.431Z,0.60
2023-01-05T12:01:49.732Z,0.70
2023-01-05T12:04:35.884Z,0.80
2023-01-05T12:07:13.831Z,0.60
2023-01-05T12:09:45.211Z,0.60
2023-01-05T12:12:24.444Z,0.60
2023-01-05T12:15:06.292Z,0.70
2023-01-05T12:17:44.065Z,0.60
2023-01-05T12:20:27.043Z,0.70
2023-01-05T12:23:33.710Z,0.70
2023-01-05T12:26:05.598Z,0.80
2023-01-05T12:29:45.144Z,0.70
2023-01-05T12:33:44.503Z,0.80
2023-01-05T12:35:17.854Z,0.80
2023-01-05T12:37:56.944Z,0.77
2023-01-05T12:40:33.957Z,0.60
2023-01-05T12:43:03.612Z,0.60
2023-01-05T12:45:47.715Z,0.77
2023-01-05T12:48:18.899Z,0.70
2023-01-05T12:50:51.812Z,0.70
2023-01-05T12:53:30.628Z,0.73
2023-01-05T12:56:01.238Z,0.70
2023-01-05T12:58:32.585Z,0.60
2023-01-05T13:01:02.013Z,0.70
2023-01-05T13:03:34.849Z,0.70
2023-01-05T13:06:07.699Z,0.60
2023-01-05T13:08:39.852Z,0.67
2023-01-05T13:11:12.307Z,0.97
2023-01-05T13:13:42.903Z,0.97
2023-01-05T13:16:15.391Z,0.60
2023-01-05T13:18:50.026Z,0.80
2023-01-05T13:21:20.622Z,0.80
2023-01-05T13:23:51.386Z,0.60
2023-01-05T13:26:20.603Z,0.70
2023-01-05T13:28:49.363Z,0.80
2023-01-05T13:31:48.271Z,0.73
2023-01-05T13:34:32.091Z,0.60
2023-01-05T13:37:39.403Z,0.80
2023-01-05T13:40:22.250Z,0.63
2023-01-05T13:43:12.302Z,0.80
2023-01-05T13:46:01.825Z,0.60
2023-01-05T13:48:45.240Z,0.80
2023-01-05T13:51:37.606Z,0.90
2023-01-05T13:54:13.450Z,0.73
2023-01-05T13:56:41.924Z,0.73
2023-01-05T13:59:34.763Z,0.60
2023-01-05T14:02:27.502Z,0.80
2023-01-05T14:04:55.910Z,1.17
2023-01-05T14:07:24.323Z,0.80
2023-01-05T14:09:55.962Z,0.60
2023-01-05T14:12:55.195Z,0.70
2023-01-05T14:15:36.498Z,0.60
2023-01-05T14:18:05.720Z,0.87
2023-01-05T14:20:36.809Z,0.67
2023-01-05T14:23:43.748Z,0.60
2023-01-05T14:26:13.645Z,0.70
2023-01-05T14:28:44.537Z,0.60
2023-01-05T14:31:37.866Z,1.40
2023-01-05T14:34:09.645Z,0.90
2023-01-05T14:36:40.864Z,1.30
2023-01-05T14:39:23.416Z,0.73
2023-01-05T14:42:00.599Z,0.70
2023-01-05T14:44:32.174Z,0.63
2023-01-05T14:47:01.313Z,0.80
2023-01-05T14:49:33.279Z,0.83
2023-01-05T14:52:03.126Z,0.67
2023-01-05T14:55:24.279Z,0.80
2023-01-05T14:58:02.760Z,0.70
2023-01-05T15:00:38.311Z,0.70
2023-01-05T15:03:15.001Z,0.60
2023-01-05T15:05:46.840Z,0.90
2023-01-05T15:08:23.645Z,0.60
2023-01-05T15:11:11.067Z,0.70
2023-01-05T15:14:18.322Z,0.90
2023-01-05T15:17:14.330Z,0.63
2023-01-05T15:19:52.744Z,0.80
2023-01-05T15:22:38.067Z,0.70
2023-01-05T15:25:32.402Z,0.77
2023-01-05T15:28:53.547Z,1.00
2023-01-05T15:31:37.306Z,1.00
2023-01-05T15:34:15.130Z,0.80
2023-01-05T15:36:49.420Z,1.00
2023-01-05T15:39:25.812Z,0.70
2023-01-05T15:41:55.097Z,0.70
2023-01-05T15:44:25.511Z,1.00
2023-01-05T15:46:54.565Z,0.60
2023-01-05T15:49:25.363Z,0.70
2023-01-05T15:51:55.300Z,0.67
2023-01-05T15:54:25.705Z,0.77
2023-01-05T15:56:54.136Z,0.90
2023-01-05T15:59:32.456Z,0.90
2023-01-05T16:02:00.962Z,0.97
2023-01-05T16:04:29.342Z,0.70
2023-01-05T16:07:01.249Z,0.60
2023-01-05T16:09:33.391Z,0.60
2023-01-05T16:12:05.140Z,0.63
2023-01-05T16:14:36.760Z,0.80
2023-01-05T16:17:08.293Z,0.70
2023-01-05T16:19:41.526Z,0.80
2023-01-05T16:22:14.929Z,0.93
2023-01-05T16:24:47.013Z,0.70
2023-01-05T16:27:15.300Z,0.77
2023-01-05T16:29:47.136Z,0.80
2023-01-05T16:32:30.676Z,0.70
2023-01-05T16:35:21.166Z,0.97
2023-01-05T16:38:18.490Z,0.60
2023-01-05T16:41:09.139Z,1.20
2023-01-05T16:43:39.354Z,0.60
2023-01-05T16:46:30.867Z,1.07
2023-01-05T16:49:01.551Z,0.70
2023-01-05T16:51:41.555Z,0.70
2023-01-05T16:54:19.026Z,0.83
2023-01-05T16:56:58.153Z,0.70
2023-01-05T16:59:44.630Z,0.90
2023-01-05T17:02:49.023Z,0.70
2023-01-05T17:05:20.407Z,0.80
2023-01-05T17:07:50.289Z,0.77
2023-01-05T17:10:22.658Z,0.60
2023-01-05T17:12:57.229Z,0.67
2023-01-05T17:15:29.457Z,0.70
2023-01-05T17:17:59.131Z,1.00
2023-01-05T17:20:31.360Z,0.90
2023-01-05T17:22:59.488Z,0.70
2023-01-05T17:25:34.325Z,0.70
2023-01-05T17:28:02.386Z,0.87
2023-01-05T17:30:30.530Z,0.77
2023-01-05T17:32:59.941Z,0.70
2023-01-05T17:35:28.064Z,0.70
2023-01-05T17:37:56.139Z,0.70
2023-01-05T17:40:24.487Z,0.60
2023-01-05T17:42:52.708Z,0.70
2023-01-05T17:45:21.839Z,1.00
2023-01-05T17:47:50.549Z,0.60
2023-01-05T17:50:23.117Z,1.00
2023-01-05T17:52:51.425Z,0.80
2023-01-05T17:55:19.811Z,0.77
2023-01-05T17:57:48.482Z,0.77
2023-01-05T18:00:21.944Z,1.03
2023-01-05T18:02:51.316Z,1.30
2023-01-05T18:05:21.797Z,1.03
2023-01-05T18:07:50.625Z,0.90
2023-01-05T18:10:21.686Z,0.70
2023-01-05T18:12:50.041Z,1.23
2023-01-05T18:15:18.268Z,1.00
2023-01-05T18:17:46.416Z,0.70
2023-01-05T18:20:17.549Z,0.90
2023-01-05T18:22:49.425Z,0.60
2023-01-05T18:25:17.955Z,0.97
2023-01-05T18:27:46.016Z,1.30
2023-01-05T18:30:14.807Z,0.93
2023-01-05T18:32:43.479Z,0.90
2023-01-05T18:35:12.210Z,0.90
2023-01-05T18:37:41.140Z,0.60
2023-01-05T18:40:13.000Z,0.60
2023-01-05T18:42:41.178Z,1.20
2023-01-05T18:45:19.147Z,0.73
2023-01-05T18:47:48.126Z,0.80
2023-01-05T18:50:16.488Z,0.90
2023-01-05T18:52:44.725Z,0.70
2023-01-05T18:55:14.704Z,0.97
2023-01-05T18:57:42.937Z,0.70
2023-01-05T19:00:12.108Z,0.70
2023-01-05T19:02:41.216Z,0.83
2023-01-05T19:05:10.179Z,0.80
2023-01-05T19:07:39.760Z,0.80
2023-01-05T19:10:08.690Z,0.93
2023-01-05T19:12:38.249Z,0.80
2023-01-05T19:15:07.006Z,0.90
2023-01-05T19:17:35.131Z,0.80
2023-01-05T19:20:03.275Z,0.80
2023-01-05T19:22:31.671Z,0.80
2023-01-05T19:24:59.811Z,0.80
2023-01-05T19:27:28.531Z,0.60
2023-01-05T19:29:58.360Z,0.77
2023-01-05T19:32:26.537Z,0.80
2023-01-05T19:34:54.628Z,0.70
2023-01-05T19:37:22.767Z,0.60
2023-01-05T19:39:50.898Z,1.17
2023-01-05T19:42:18.946Z,0.90
2023-01-05T19:44:47.259Z,0.80
2023-01-05T19:47:16.761Z,0.70
2023-01-05T19:49:44.877Z,0.80
2023-01-05T19:52:13.849Z,0.90
2023-01-05T19:54:42.909Z,0.87
2023-01-05T19:57:11.148Z,1.20
2023-01-05T19:59:39.379Z,0.73
2023-01-05T20:02:07.895Z,1.10
2023-01-05T20:04:37.416Z,1.00
2023-01-05T20:07:10.107Z,0.90
2023-01-05T20:09:38.705Z,1.00
2023-01-05T20:12:14.546Z,1.00
2023-01-05T20:14:43.621Z,0.90
2023-01-05T20:17:12.724Z,1.30
2023-01-05T20:19:42.442Z,0.80
2023-01-05T20:22:13.787Z,1.30
2023-01-05T20:24:42.834Z,1.07
2023-01-05T20:27:13.318Z,1.27
2023-01-05T20:29:41.538Z,1.10
2023-01-05T20:32:12.717Z,1.40
2023-01-05T20:34:44.532Z,1.37
2023-01-05T20:37:12.997Z,1.40
2023-01-05T20:39:42.263Z,1.20
2023-01-05T20:42:11.817Z,1.43
2023-01-05T20:44:41.724Z,1.10
2023-01-05T20:47:10.467Z,1.00
2023-01-05T20:49:39.906Z,1.00
2023-01-05T20:52:10.685Z,1.10
2023-01-05T20:54:40.231Z,1.00
2023-01-05T20:57:09.089Z,1.03
2023-01-05T20:59:40.893Z,1.10
2023-01-05T21:02:22.481Z,0.83
2023-01-05T21:04:52.217Z,1.00
2023-01-05T21:07:22.240Z,1.00
2023-01-05T21:09:51.656Z,0.80
2023-01-05T21:12:20.353Z,1.30
2023-01-05T21:14:48.480Z,0.93
2023-01-05T21:17:16.653Z,1.00
2023-01-05T21:19:44.937Z,1.20
2023-01-05T21:22:13.461Z,1.10
2023-01-05T21:24:43.037Z,1.30
2023-01-05T21:27:11.161Z,1.20
2023-01-05T21:29:39.312Z,0.80
2023-01-05T21:32:07.677Z,1.00
2023-01-05T21:34:35.835Z,1.20
2023-01-05T21:37:04.148Z,1.27
2023-01-05T21:39:32.527Z,1.57
2023-01-05T21:42:19.803Z,1.07
2023-01-05T21:44:48.442Z,1.20
2023-01-05T21:47:16.943Z,1.20
2023-01-05T21:49:45.587Z,0.90
2023-01-05T21:52:30.538Z,1.03
2023-01-05T21:55:27.597Z,1.57
2023-01-05T21:57:57.142Z,1.20
2023-01-05T22:00:25.584Z,1.60
2023-01-05T22:02:53.831Z,1.40
2023-01-05T22:05:22.184Z,1.10
2023-01-05T22:07:50.289Z,2.00
2023-01-05T22:10:18.892Z,1.80
2023-01-05T22:12:47.051Z,2.20
2023-01-05T22:15:16.625Z,1.40
2023-01-05T22:17:44.696Z,1.33
2023-01-05T22:20:14.032Z,1.43
2023-01-05T22:22:42.178Z,1.17
2023-01-05T22:25:10.908Z,1.20
2023-01-05T22:27:39.112Z,1.20
2023-01-05T22:30:08.817Z,1.00
2023-01-05T22:32:39.036Z,1.50
2023-01-05T22:35:07.691Z,1.20
2023-01-05T22:37:35.878Z,1.43
2023-01-05T22:40:04.085Z,1.83
2023-01-05T22:42:32.249Z,1.20
2023-01-05T22:45:00.463Z,1.37
2023-01-05T22:47:28.636Z,1.30
2023-01-05T22:49:58.058Z,1.23
2023-01-05T22:52:26.223Z,1.20
2023-01-05T22:54:54.278Z,1.27
2023-01-05T22:57:22.407Z,1.70
2023-01-05T22:59:50.601Z,1.17
2023-01-05T23:02:19.211Z,1.10
2023-01-05T23:04:47.459Z,1.07
2023-01-05T23:07:20.876Z,1.20
2023-01-05T23:09:49.366Z,1.23
2023-01-05T23:12:17.647Z,0.80
2023-01-05T23:14:45.837Z,1.23
2023-01-05T23:17:14.007Z,1.20
2023-01-05T23:19:42.076Z,1.10
2023-01-05T23:22:11.582Z,1.50
2023-01-05T23:24:41.205Z,1.00
2023-01-05T23:27:09.541Z,1.23
2023-01-05T23:29:38.049Z,1.03
2023-01-05T23:32:06.418Z,1.13
2023-01-05T23:34:34.531Z,1.13
2023-01-05T23:37:03.316Z,1.00
2023-01-05T23:39:31.443Z,0.80
2023-01-05T23:42:00.934Z,1.10
2023-01-05T23:44:29.709Z,0.90
2023-01-05T23:46:57.885Z,0.90
2023-01-05T23:49:27.588Z,1.00
2023-01-05T23:51:55.686Z,0.90
2023-01-05T23:54:23.781Z,1.20
2023-01-05T23:56:51.941Z,1.17
2023-01-05T23:59:21.409Z,1.30
